createdAt,value
2018-08-13T00:01:38.039Z,50.31
2018-08-13T00:04:07.259Z,50.79
2018-08-13T00:06:36.410Z,50.15
2018-08-13T00:09:07.531Z,50.70
2018-08-13T00:11:37.888Z,50.63
2018-08-13T00:14:06.889Z,50.56
2018-08-13T00:16:36.175Z,50.68
2018-08-13T00:19:05.515Z,51.14
2018-08-13T00:21:34.735Z,51.12
2018-08-13T00:24:03.939Z,51.61
2018-08-13T00:26:33.107Z,51.17
2018-08-13T00:29:02.235Z,51.93
2018-08-13T00:31:31.448Z,51.96
2018-08-13T00:34:01.395Z,52.08
2018-08-13T00:36:30.509Z,52.26
2018-08-13T00:38:59.547Z,51.76
2018-08-13T00:41:28.829Z,51.90
2018-08-13T00:43:58.342Z,52.50
2018-08-13T00:46:27.793Z,52.39
2018-08-13T00:48:56.845Z,52.26
2018-08-13T00:51:26.284Z,52.90
2018-08-13T00:53:55.667Z,52.68
2018-08-13T00:56:24.760Z,52.30
2018-08-13T00:58:54.007Z,52.77
2018-08-13T01:01:23.380Z,52.25
2018-08-13T01:03:52.588Z,52.28
2018-08-13T01:06:21.659Z,52.52
2018-08-13T01:08:51.083Z,52.09
2018-08-13T01:11:20.458Z,52.40
2018-08-13T01:13:49.936Z,52.72
2018-08-13T01:16:19.300Z,53.00
2018-08-13T01:18:48.524Z,52.76
2018-08-13T01:21:17.973Z,52.28
2018-08-13T01:23:47.172Z,52.88
2018-08-13T01:26:16.713Z,52.60
2018-08-13T01:28:45.800Z,52.53
2018-08-13T01:31:15.256Z,52.85
2018-08-13T01:33:44.449Z,52.85
2018-08-13T01:36:13.837Z,52.92
2018-08-13T01:38:43.189Z,53.12
2018-08-13T01:41:13.305Z,52.90
2018-08-13T01:43:42.735Z,53.77
2018-08-13T01:46:12.037Z,53.44
2018-08-13T01:48:41.598Z,53.48
2018-08-13T01:51:11.560Z,54.14
2018-08-13T01:53:40.985Z,53.56
2018-08-13T01:56:10.230Z,53.78
2018-08-13T01:58:45.775Z,54.37
2018-08-13T02:01:15.503Z,54.49
2018-08-13T02:03:44.923Z,54.56
2018-08-13T02:06:14.057Z,54.12
2018-08-13T02:08:43.684Z,54.31
2018-08-13T02:11:13.364Z,54.25
2018-08-13T02:13:42.760Z,53.93
2018-08-13T02:16:12.204Z,54.61
2018-08-13T02:18:41.401Z,54.65
2018-08-13T02:21:10.715Z,54.26
2018-08-13T02:23:40.103Z,54.49
2018-08-13T02:26:09.831Z,53.71
2018-08-13T02:28:39.282Z,54.49
2018-08-13T02:31:08.311Z,54.52
2018-08-13T02:33:38.031Z,54.90
2018-08-13T02:36:09.975Z,54.90
2018-08-13T02:38:39.511Z,54.50
2018-08-13T02:41:09.106Z,54.83
2018-08-13T02:43:38.366Z,54.70
2018-08-13T02:46:07.879Z,54.61
2018-08-13T02:48:37.237Z,54.58
2018-08-13T02:51:06.399Z,54.61
2018-08-13T02:53:35.675Z,54.43
2018-08-13T02:56:05.121Z,54.58
2018-08-13T02:58:34.273Z,55.09
2018-08-13T03:01:03.678Z,55.04
2018-08-13T03:03:33.298Z,55.37
2018-08-13T03:06:03.128Z,54.98
2018-08-13T03:08:32.860Z,55.45
2018-08-13T03:11:01.990Z,55.40
2018-08-13T03:13:30.994Z,55.46
2018-08-13T03:16:00.052Z,55.75
2018-08-13T03:18:30.275Z,55.07
2018-08-13T03:20:59.746Z,55.50
2018-08-13T03:23:29.167Z,55.76
2018-08-13T03:25:58.481Z,55.87
2018-08-13T03:28:27.917Z,56.88
2018-08-13T03:30:57.237Z,56.30
2018-08-13T03:33:26.192Z,56.75
2018-08-13T03:35:55.502Z,56.70
2018-08-13T03:38:24.455Z,57.79
2018-08-13T03:40:53.805Z,57.95
2018-08-13T03:43:23.333Z,58.02
2018-08-13T03:45:52.613Z,57.69
2018-08-13T03:48:22.474Z,57.67
2018-08-13T03:50:51.567Z,57.74
2018-08-13T03:53:20.723Z,58.58
2018-08-13T03:55:49.922Z,58.10
2018-08-13T03:58:18.982Z,58.13
2018-08-13T04:00:48.126Z,58.25
2018-08-13T04:03:17.414Z,59.02
2018-08-13T04:05:46.569Z,59.11
2018-08-13T04:08:16.288Z,59.33
2018-08-13T04:10:45.319Z,59.32
2018-08-13T04:13:14.491Z,58.71
2018-08-13T04:15:43.934Z,58.79
2018-08-13T04:18:12.984Z,58.98
2018-08-13T04:20:42.014Z,59.46
2018-08-13T04:23:10.971Z,58.82
2018-08-13T04:25:40.598Z,58.95
2018-08-13T04:28:09.606Z,58.77
2018-08-13T04:30:39.286Z,59.40
2018-08-13T04:33:08.782Z,58.52
2018-08-13T04:35:38.555Z,59.13
2018-08-13T04:38:07.597Z,59.01
2018-08-13T04:40:37.879Z,58.76
2018-08-13T04:43:07.235Z,59.07
2018-08-13T04:45:36.502Z,58.29
2018-08-13T04:48:06.232Z,58.70
2018-08-13T04:50:35.331Z,57.91
2018-08-13T04:53:04.232Z,58.12
2018-08-13T04:55:33.660Z,57.71
2018-08-13T04:58:03.656Z,57.93
2018-08-13T05:00:33.193Z,57.39
2018-08-13T05:03:02.352Z,57.87
2018-08-13T05:05:31.364Z,57.35
2018-08-13T05:08:00.807Z,57.76
2018-08-13T05:10:30.134Z,57.16
2018-08-13T05:12:59.232Z,57.51
2018-08-13T05:15:28.435Z,57.04
2018-08-13T05:17:57.708Z,56.57
2018-08-13T05:20:27.397Z,56.57
2018-08-13T05:22:56.603Z,57.36
2018-08-13T05:25:25.975Z,57.27
2018-08-13T05:27:55.150Z,57.53
2018-08-13T05:30:24.316Z,56.98
2018-08-13T05:32:53.686Z,57.65
2018-08-13T05:35:22.695Z,57.83
2018-08-13T05:37:51.928Z,57.55
2018-08-13T05:40:21.780Z,57.47
2018-08-13T05:42:52.593Z,57.51
2018-08-13T05:45:22.259Z,57.49
2018-08-13T05:47:51.503Z,57.82
2018-08-13T05:50:20.715Z,57.53
2018-08-13T05:52:50.625Z,57.06
2018-08-13T05:55:19.804Z,56.83
2018-08-13T05:57:48.861Z,56.82
2018-08-13T06:00:18.507Z,56.67
2018-08-13T06:02:47.691Z,56.33
2018-08-13T06:05:16.873Z,56.56
2018-08-13T06:07:46.157Z,56.40
2018-08-13T06:10:15.210Z,56.42
2018-08-13T06:12:44.465Z,55.73
2018-08-13T06:15:14.330Z,55.92
2018-08-13T06:17:43.642Z,56.13
2018-08-13T06:20:13.395Z,55.40
2018-08-13T06:22:43.721Z,55.42
2018-08-13T06:25:13.670Z,55.04
2018-08-13T06:27:42.908Z,54.30
2018-08-13T06:30:14.451Z,54.97
2018-08-13T06:32:44.138Z,54.85
2018-08-13T06:35:13.921Z,53.75
2018-08-13T06:37:44.178Z,53.70
2018-08-13T06:40:13.703Z,53.63
2018-08-13T06:42:43.116Z,54.17
2018-08-13T06:45:12.412Z,53.93
2018-08-13T06:47:41.893Z,53.84
2018-08-13T06:50:12.995Z,53.66
2018-08-13T06:52:43.256Z,52.92
2018-08-13T06:55:12.541Z,53.58
2018-08-13T06:57:41.958Z,53.19
2018-08-13T07:00:12.886Z,53.43
2018-08-13T07:02:42.279Z,53.45
2018-08-13T07:05:11.752Z,52.91
2018-08-13T07:07:41.816Z,52.72
2018-08-13T07:10:12.989Z,53.62
2018-08-13T07:12:43.561Z,52.95
2018-08-13T07:15:17.014Z,52.78
2018-08-13T07:17:49.461Z,53.58
2018-08-13T07:20:19.200Z,53.06
2018-08-13T07:22:48.542Z,53.36
2018-08-13T07:25:17.921Z,53.37
2018-08-13T07:27:47.133Z,52.38
2018-08-13T07:30:17.330Z,52.54
2018-08-13T07:32:46.307Z,53.03
2018-08-13T07:35:15.475Z,52.42
2018-08-13T07:37:44.546Z,51.89
2018-08-13T07:40:16.514Z,50.72
2018-08-13T07:42:46.223Z,50.69
2018-08-13T07:45:15.487Z,50.78
2018-08-13T07:47:44.623Z,51.43
2018-08-13T07:50:15.271Z,51.10
2018-08-13T07:52:44.775Z,50.90
2018-08-13T07:55:14.470Z,50.96
2018-08-13T07:57:43.621Z,50.72
2018-08-13T08:00:15.792Z,50.41
2018-08-13T08:02:45.175Z,51.02
2018-08-13T08:05:14.552Z,50.78
2018-08-13T08:07:44.281Z,50.74
2018-08-13T08:10:15.373Z,51.20
2018-08-13T08:12:44.653Z,50.49
2018-08-13T08:15:16.342Z,50.96
2018-08-13T08:17:46.020Z,51.15
2018-08-13T08:20:15.334Z,51.48
2018-08-13T08:22:44.294Z,50.37
2018-08-13T08:25:18.611Z,50.01
2018-08-13T08:27:47.910Z,50.09
2018-08-13T08:30:16.927Z,50.22
2018-08-13T08:32:45.997Z,50.73
2018-08-13T08:35:16.231Z,51.95
2018-08-13T08:37:45.428Z,51.47
2018-08-13T08:40:17.261Z,51.63
2018-08-13T08:42:46.780Z,51.56
2018-08-13T08:45:19.951Z,51.73
2018-08-13T08:47:49.237Z,50.83
2018-08-13T08:50:18.911Z,50.51
2018-08-13T08:52:48.395Z,51.40
2018-08-13T08:55:21.218Z,50.80
2018-08-13T08:57:51.293Z,51.53
2018-08-13T09:00:21.572Z,50.36
2018-08-13T09:02:50.690Z,51.06
2018-08-13T09:05:20.027Z,50.96
2018-08-13T09:07:49.313Z,49.99
2018-08-13T09:10:18.336Z,49.15
2018-08-13T09:12:47.336Z,50.00
2018-08-13T09:15:17.552Z,50.13
2018-08-13T09:17:58.695Z,49.35
2018-08-13T09:20:38.560Z,49.32
2018-08-13T09:23:18.227Z,48.79
2018-08-13T09:25:57.926Z,48.59
2018-08-13T09:28:38.547Z,48.50
2018-08-13T09:31:18.347Z,48.19
2018-08-13T09:33:58.451Z,49.30
2018-08-13T09:36:27.353Z,48.75
2018-08-13T09:38:56.452Z,46.83
2018-08-13T09:41:25.572Z,45.94
2018-08-13T09:43:55.000Z,45.76
2018-08-13T09:46:24.170Z,45.78
2018-08-13T09:48:53.783Z,45.29
2018-08-13T09:51:23.333Z,43.62
2018-08-13T09:53:52.754Z,43.31
2018-08-13T09:56:21.835Z,44.07
2018-08-13T09:58:51.440Z,44.28
2018-08-13T10:01:20.636Z,44.02
2018-08-13T10:03:50.266Z,43.36
2018-08-13T10:06:19.212Z,42.94
2018-08-13T10:08:48.467Z,42.67
2018-08-13T10:11:17.634Z,41.82
2018-08-13T10:13:46.663Z,41.59
2018-08-13T10:16:16.225Z,41.76
2018-08-13T10:18:45.097Z,40.32
2018-08-13T10:21:14.250Z,40.66
2018-08-13T10:23:43.380Z,40.36
2018-08-13T10:26:12.448Z,39.91
2018-08-13T10:28:41.509Z,39.74
2018-08-13T10:31:10.622Z,40.36
2018-08-13T10:33:40.243Z,40.22
2018-08-13T10:36:09.971Z,39.46
2018-08-13T10:38:39.083Z,39.32
2018-08-13T10:41:08.630Z,39.45
2018-08-13T10:43:37.988Z,38.24
2018-08-13T10:46:08.010Z,38.36
2018-08-13T10:48:36.925Z,37.77
2018-08-13T10:51:06.234Z,38.58
2018-08-13T10:53:35.748Z,38.17
2018-08-13T10:56:05.076Z,38.08
2018-08-13T10:58:34.380Z,37.49
2018-08-13T11:01:03.359Z,38.59
2018-08-13T11:03:32.605Z,37.27
2018-08-13T11:06:01.680Z,37.09
2018-08-13T11:08:30.780Z,37.01
2018-08-13T11:10:59.912Z,36.13
2018-08-13T11:13:29.242Z,36.75
2018-08-13T11:15:58.610Z,36.56
2018-08-13T11:18:28.229Z,35.85
2018-08-13T11:20:57.359Z,36.44
2018-08-13T11:23:26.343Z,35.72
2018-08-13T11:25:55.428Z,34.87
2018-08-13T11:28:24.515Z,35.71
2018-08-13T11:30:53.815Z,34.85
2018-08-13T11:33:24.183Z,34.86
2018-08-13T11:35:53.199Z,35.54
2018-08-13T11:38:22.340Z,35.20
2018-08-13T11:40:51.560Z,34.96
2018-08-13T11:43:20.776Z,34.60
2018-08-13T11:45:50.191Z,35.64
2018-08-13T11:48:19.223Z,34.67
2018-08-13T11:50:48.238Z,35.58
2018-08-13T11:53:17.227Z,35.27
2018-08-13T11:55:46.314Z,35.02
2018-08-13T11:58:15.810Z,34.33
2018-08-13T12:00:44.944Z,34.20
2018-08-13T12:03:14.305Z,33.65
2018-08-13T12:05:43.439Z,33.04
2018-08-13T12:08:13.081Z,32.97
2018-08-13T12:10:42.413Z,33.36
2018-08-13T12:13:11.510Z,33.46
2018-08-13T12:15:40.605Z,33.95
2018-08-13T12:18:09.718Z,33.38
2018-08-13T12:20:38.758Z,32.57
2018-08-13T12:23:07.755Z,32.92
2018-08-13T12:25:37.091Z,33.61
2018-08-13T12:28:06.475Z,32.86
2018-08-13T12:30:36.206Z,33.26
2018-08-13T12:33:05.418Z,32.97
2018-08-13T12:35:35.323Z,31.63
2018-08-13T12:38:04.641Z,31.61
2018-08-13T12:40:33.949Z,31.48
2018-08-13T12:43:03.314Z,30.56
2018-08-13T12:45:32.466Z,30.97
2018-08-13T12:48:02.456Z,31.88
2018-08-13T12:50:31.574Z,31.01
2018-08-13T12:53:00.648Z,30.84
2018-08-13T12:55:30.416Z,30.62
2018-08-13T12:57:59.762Z,31.68
2018-08-13T13:00:29.426Z,30.79
2018-08-13T13:02:58.572Z,30.43
2018-08-13T13:05:27.768Z,30.25
2018-08-13T13:07:57.785Z,30.57
2018-08-13T13:10:27.803Z,29.89
2018-08-13T13:12:56.944Z,31.16
2018-08-13T13:15:25.895Z,30.61
2018-08-13T13:17:55.583Z,30.39
2018-08-13T13:20:24.631Z,31.44
2018-08-13T13:22:53.846Z,31.39
2018-08-13T13:25:22.789Z,31.43
2018-08-13T13:27:51.964Z,31.50
2018-08-13T13:30:21.335Z,30.42
2018-08-13T13:32:50.426Z,29.94
2018-08-13T13:35:19.863Z,28.92
2018-08-13T13:37:49.678Z,28.69
2018-08-13T13:40:19.303Z,29.53
2018-08-13T13:42:48.542Z,29.96
2018-08-13T13:45:18.670Z,30.74
2018-08-13T13:47:47.780Z,30.55
2018-08-13T13:50:18.507Z,30.24
2018-08-13T13:52:47.441Z,29.44
2018-08-13T13:55:17.046Z,29.39
2018-08-13T13:57:45.983Z,29.21
2018-08-13T14:00:16.862Z,29.66
2018-08-13T14:02:46.962Z,29.98
2018-08-13T14:05:15.955Z,30.00
2018-08-13T14:07:45.125Z,29.68
2018-08-13T14:10:16.010Z,29.84
2018-08-13T14:12:45.982Z,29.03
2018-08-13T14:15:16.632Z,29.29
2018-08-13T14:17:46.209Z,29.94
2018-08-13T14:20:15.510Z,29.96
2018-08-13T14:22:44.568Z,30.01
2018-08-13T14:25:14.445Z,29.98
2018-08-13T14:27:43.610Z,28.97
2018-08-13T14:37:18.125Z,29.41
2018-08-13T14:39:47.292Z,28.71
2018-08-13T14:42:16.714Z,28.69
2018-08-13T14:44:45.629Z,28.72
2018-08-13T14:47:14.657Z,28.92
2018-08-13T14:49:43.732Z,29.39
2018-08-13T14:52:12.688Z,29.04
2018-08-13T14:54:41.772Z,28.49
2018-08-13T14:57:10.640Z,29.42
2018-08-13T14:59:39.531Z,29.51
2018-08-13T15:02:08.611Z,29.13
2018-08-13T15:04:37.967Z,29.83
2018-08-13T15:07:07.338Z,29.74
2018-08-13T15:09:36.445Z,29.28
2018-08-13T15:12:05.837Z,29.27
2018-08-13T15:14:35.074Z,29.14
2018-08-13T15:17:04.270Z,28.78
2018-08-13T15:19:33.231Z,29.10
2018-08-13T15:22:02.288Z,29.00
2018-08-13T15:24:31.415Z,28.31
2018-08-13T15:27:00.425Z,29.27
2018-08-13T15:29:29.618Z,28.52
2018-08-13T15:31:59.564Z,28.78
2018-08-13T15:34:28.615Z,28.67
2018-08-13T15:36:57.938Z,28.75
2018-08-13T15:39:27.343Z,29.47
2018-08-13T15:41:56.309Z,29.53
2018-08-13T15:44:25.299Z,28.64
2018-08-13T15:46:54.211Z,29.44
2018-08-13T15:49:23.271Z,29.18
2018-08-13T15:51:52.409Z,28.46
2018-08-13T15:54:22.030Z,28.65
2018-08-13T15:56:51.294Z,29.87
2018-08-13T15:59:20.414Z,29.49
2018-08-13T16:01:49.569Z,30.55
2018-08-13T16:04:18.796Z,29.90
2018-08-13T16:06:48.707Z,30.16
2018-08-13T16:09:17.891Z,30.41
2018-08-13T16:11:47.954Z,30.12
2018-08-13T16:14:17.021Z,29.89
2018-08-13T16:16:46.497Z,30.13
2018-08-13T16:19:15.460Z,30.18
2018-08-13T16:21:44.710Z,29.42
2018-08-13T16:24:13.747Z,30.19
2018-08-13T16:26:43.002Z,29.42
2018-08-13T16:29:12.225Z,29.36
2018-08-13T16:31:41.080Z,30.11
2018-08-13T16:34:10.302Z,30.34
2018-08-13T16:36:39.631Z,30.82
2018-08-13T16:39:10.693Z,31.42
2018-08-13T16:41:40.090Z,31.85
2018-08-13T16:44:09.573Z,32.16
2018-08-13T16:46:38.949Z,31.65
2018-08-13T16:49:08.255Z,32.09
2018-08-13T16:51:37.796Z,33.00
2018-08-13T16:54:06.852Z,32.50
2018-08-13T16:56:36.304Z,32.81
2018-08-13T16:59:05.358Z,33.85
2018-08-13T17:01:35.060Z,33.29
2018-08-13T17:04:04.551Z,33.37
2018-08-13T17:06:33.871Z,34.17
2018-08-13T17:09:03.304Z,34.60
2018-08-13T17:11:34.651Z,35.08
2018-08-13T17:14:05.463Z,35.46
2018-08-13T17:16:34.674Z,35.39
2018-08-13T17:19:04.575Z,35.25
2018-08-13T17:21:34.113Z,35.35
2018-08-13T17:24:03.573Z,36.70
2018-08-13T17:26:33.403Z,36.22
2018-08-13T17:29:03.132Z,36.84
2018-08-13T17:31:32.415Z,36.84
2018-08-13T17:34:01.525Z,35.90
2018-08-13T17:36:30.760Z,36.45
2018-08-13T17:39:00.983Z,36.65
2018-08-13T17:41:30.654Z,36.02
2018-08-13T17:44:00.230Z,37.05
2018-08-13T17:46:29.415Z,36.86
2018-08-13T17:48:58.384Z,37.43
2018-08-13T17:51:28.134Z,37.71
2018-08-13T17:53:57.304Z,37.97
2018-08-13T17:56:26.506Z,37.66
2018-08-13T17:58:55.748Z,38.53
2018-08-13T18:01:25.396Z,38.64
2018-08-13T18:03:55.018Z,39.26
2018-08-13T18:06:28.328Z,39.40
2018-08-13T18:08:59.948Z,40.13
2018-08-13T18:11:29.118Z,40.32
2018-08-13T18:13:58.620Z,39.88
2018-08-13T18:16:28.159Z,40.84
2018-08-13T18:18:57.614Z,40.71
2018-08-13T18:21:27.423Z,41.07
2018-08-13T18:23:56.580Z,41.33
2018-08-13T18:26:25.653Z,41.80
2018-08-13T18:28:54.651Z,41.99
2018-08-13T18:31:23.950Z,41.46
2018-08-13T18:33:53.071Z,41.65
2018-08-13T18:36:22.315Z,42.03
2018-08-13T18:38:51.346Z,42.50
2018-08-13T18:41:20.950Z,42.85
2018-08-13T18:43:50.375Z,42.30
2018-08-13T18:46:19.266Z,43.11
2018-08-13T18:48:48.725Z,43.32
2018-08-13T18:51:18.425Z,43.10
2018-08-13T18:53:48.023Z,42.52
2018-08-13T18:56:17.858Z,42.93
2018-08-13T18:58:47.208Z,43.02
2018-08-13T19:01:16.467Z,43.59
2018-08-13T19:03:45.647Z,44.06
2018-08-13T19:06:15.415Z,43.30
2018-08-13T19:08:44.680Z,44.06
2018-08-13T19:11:14.850Z,43.73
2018-08-13T19:13:44.504Z,44.71
2018-08-13T19:16:13.603Z,44.14
2018-08-13T19:18:43.636Z,44.71
2018-08-13T19:21:12.750Z,45.06
2018-08-13T19:23:42.014Z,45.55
2018-08-13T19:26:11.009Z,45.48
2018-08-13T19:28:40.781Z,45.48
2018-08-13T19:31:10.182Z,45.04
2018-08-13T19:33:40.248Z,46.03
2018-08-13T19:36:09.392Z,45.30
2018-08-13T19:38:38.634Z,45.26
2018-08-13T19:41:14.337Z,46.06
2018-08-13T19:43:43.196Z,45.70
2018-08-13T19:46:12.443Z,46.39
2018-08-13T19:48:41.807Z,45.88
2018-08-13T19:51:11.235Z,46.85
2018-08-13T19:53:40.937Z,47.13
2018-08-13T19:56:10.312Z,46.60
2018-08-13T19:58:39.970Z,46.94
2018-08-13T20:01:09.881Z,45.88
2018-08-13T20:03:39.137Z,46.69
2018-08-13T20:06:08.471Z,46.78
2018-08-13T20:08:37.715Z,46.84
2018-08-13T20:11:06.778Z,46.64
2018-08-13T20:13:35.974Z,47.74
2018-08-13T20:16:05.355Z,47.19
2018-08-13T20:18:34.964Z,47.64
2018-08-13T20:21:04.029Z,48.35
2018-08-13T20:23:33.752Z,47.74
2018-08-13T20:26:02.889Z,48.40
2018-08-13T20:28:31.931Z,48.42
2018-08-13T20:31:01.239Z,48.86
2018-08-13T20:33:31.104Z,48.13
2018-08-13T20:36:00.583Z,48.82
2018-08-13T20:38:29.831Z,48.47
2018-08-13T20:40:58.990Z,48.50
2018-08-13T20:43:28.211Z,48.96
2018-08-13T20:45:57.515Z,48.64
2018-08-13T20:48:26.436Z,48.96
2018-08-13T20:50:56.105Z,49.12
2018-08-13T20:53:25.477Z,48.66
2018-08-13T20:55:54.627Z,49.10
2018-08-13T20:58:23.775Z,48.65
2018-08-13T21:00:52.951Z,48.11
2018-08-13T21:03:22.067Z,47.80
2018-08-13T21:05:51.058Z,46.76
2018-08-13T21:08:20.578Z,45.92
2018-08-13T21:10:49.696Z,45.71
2018-08-13T21:13:18.836Z,46.54
2018-08-13T21:15:49.002Z,46.75
2018-08-13T21:18:18.099Z,46.08
2018-08-13T21:20:47.293Z,46.48
2018-08-13T21:23:16.421Z,46.77
2018-08-13T21:25:46.217Z,46.75
2018-08-13T21:28:15.222Z,47.49
2018-08-13T21:30:44.505Z,47.98
2018-08-13T21:33:13.476Z,48.22
2018-08-13T21:35:44.001Z,47.64
2018-08-13T21:38:13.297Z,48.49
2018-08-13T21:40:42.750Z,47.87
2018-08-13T21:43:12.079Z,47.99
2018-08-13T21:45:42.456Z,49.04
2018-08-13T21:48:11.457Z,48.25
2018-08-13T21:50:40.462Z,48.67
2018-08-13T21:53:10.622Z,49.52
2018-08-13T21:55:40.155Z,49.62
2018-08-13T21:58:14.056Z,49.73
2018-08-13T22:00:48.216Z,49.86
2018-08-13T22:03:17.090Z,50.91
2018-08-13T22:05:46.394Z,51.09
2018-08-13T22:08:16.811Z,51.71
2018-08-13T22:10:45.999Z,51.44
2018-08-13T22:13:15.114Z,52.12
2018-08-13T22:15:45.077Z,52.32
2018-08-13T22:18:14.302Z,52.82
2018-08-13T22:20:43.268Z,53.58
2018-08-13T22:23:12.827Z,54.14
2018-08-13T22:25:46.238Z,54.70
2018-08-13T22:28:16.770Z,55.06
2018-08-13T22:30:45.786Z,54.58
2018-08-13T22:33:15.643Z,55.48
2018-08-13T22:35:44.680Z,55.27
2018-08-13T22:38:14.577Z,55.94
2018-08-13T22:40:43.837Z,55.75
2018-08-13T22:43:13.220Z,56.14
2018-08-13T22:45:42.233Z,57.14
2018-08-13T22:48:11.400Z,56.58
2018-08-13T22:50:40.518Z,57.65
2018-08-13T22:53:09.610Z,57.21
2018-08-13T22:55:38.717Z,57.99
2018-08-13T22:58:08.003Z,57.65
2018-08-13T23:00:37.212Z,58.78
2018-08-13T23:03:06.816Z,59.06
2018-08-13T23:05:36.094Z,59.38
2018-08-13T23:08:05.007Z,59.43
2018-08-13T23:10:34.130Z,59.44
2018-08-13T23:13:03.703Z,59.88
2018-08-13T23:15:32.818Z,59.66
2018-08-13T23:18:01.914Z,59.57
2018-08-13T23:20:30.946Z,60.40
2018-08-13T23:23:03.848Z,60.68
2018-08-13T23:25:34.253Z,60.15
2018-08-13T23:28:04.849Z,60.21
2018-08-13T23:30:33.962Z,60.64
2018-08-13T23:33:03.363Z,60.72
2018-08-13T23:35:32.844Z,60.66
2018-08-13T23:38:02.043Z,61.14
2018-08-13T23:40:31.150Z,61.04
2018-08-13T23:43:00.468Z,61.49
2018-08-13T23:45:30.934Z,60.94
2018-08-13T23:48:00.355Z,61.21
2018-08-13T23:50:29.604Z,61.58
2018-08-13T23:53:00.765Z,61.25
2018-08-13T23:55:32.763Z,60.92
2018-08-13T23:58:02.102Z,61.02
